Time;durP1;ratioP1;P1;durP2;ratioP2;P2;SDS_P1;SDS_P2;PMS_P1;PMS_P2;Temp;Humidity;BMP_temperature;BMP_pressure;BME280_temperature;BME280_humidity;BME280_pressure;Samples;Min_cycle;Max_cycle;Signal;HPM_P1;HPM_P2
2022/04/05 00:00:10;;;;;;;9.40;7.57;;;11.90;99.90;;;;;;5063417;28;20587;-34
2022/04/05 00:02:40;;;;;;;10.83;8.10;;;11.90;99.90;;;;;;5065583;28;20231;-34
2022/04/05 00:05:10;;;;;;;10.40;7.73;;;11.90;99.90;;;;;;5060434;28;20215;-34
2022/04/05 00:07:39;;;;;;;9.50;7.87;;;11.90;99.90;;;;;;5055700;28;20242;-34
2022/04/05 00:10:09;;;;;;;9.73;8.57;;;11.90;99.90;;;;;;5059773;28;20706;-33
2022/04/05 00:12:40;;;;;;;8.97;7.27;;;11.90;99.90;;;;;;5064805;28;20195;-34
2022/04/05 00:15:09;;;;;;;9.00;7.97;;;12.00;99.90;;;;;;5047540;28;20312;-34
2022/04/05 00:17:39;;;;;;;9.83;8.40;;;12.00;99.90;;;;;;5057757;28;20223;-34
2022/04/05 00:20:07;;;;;;;11.63;8.70;;;12.00;99.90;;;;;;5050736;28;20326;-34
2022/04/05 00:22:38;;;;;;;10.33;8.30;;;12.00;99.90;;;;;;5063398;28;20228;-34
2022/04/05 00:25:06;;;;;;;10.63;8.47;;;12.00;99.90;;;;;;5050109;28;20577;-34
2022/04/05 00:27:35;;;;;;;12.40;9.00;;;12.10;99.90;;;;;;5060987;28;20285;-33
2022/04/05 00:30:03;;;;;;;11.00;9.17;;;12.10;99.90;;;;;;5061260;28;20199;-33
2022/04/05 00:32:30;;;;;;;11.70;9.30;;;12.10;99.90;;;;;;5071521;28;20616;-33
2022/04/05 00:35:02;;;;;;;8.63;7.73;;;12.10;99.90;;;;;;5057300;28;20228;-33
2022/04/05 00:37:29;;;;;;;11.83;8.83;;;12.10;99.90;;;;;;5062079;28;20608;-33
2022/04/05 00:39:59;;;;;;;12.27;9.60;;;12.20;99.90;;;;;;5058167;28;20228;-34
2022/04/05 00:42:33;;;;;;;12.33;9.03;;;12.20;99.90;;;;;;5063548;28;20194;-34
2022/04/05 00:45:00;;;;;;;13.17;9.50;;;12.20;99.90;;;;;;5056832;28;20230;-35
2022/04/05 00:47:31;;;;;;;13.70;9.40;;;12.30;99.90;;;;;;5064446;28;20199;-34
2022/04/05 00:50:03;;;;;;;12.87;9.87;;;12.30;99.90;;;;;;5049133;28;20246;-34
2022/04/05 00:52:34;;;;;;;10.23;9.13;;;12.30;99.90;;;;;;5061645;28;20211;-34
2022/04/05 00:55:08;;;;;;;12.97;9.67;;;12.30;99.90;;;;;;5061261;28;20587;-34
2022/04/05 00:57:40;;;;;;;11.40;9.50;;;12.30;99.90;;;;;;5062544;28;20318;-35
2022/04/05 01:00:09;;;;;;;11.87;9.43;;;12.30;99.90;;;;;;5041533;28;20239;-35
2022/04/05 01:02:37;;;;;;;12.93;10.20;;;12.30;99.90;;;;;;5062866;28;20211;-34
2022/04/05 01:05:09;;;;;;;15.60;10.63;;;12.40;99.90;;;;;;5062307;28;20199;-34
2022/04/05 01:07:44;;;;;;;11.57;10.23;;;12.40;99.90;;;;;;5055325;28;20348;-35
2022/04/05 01:10:16;;;;;;;14.13;11.20;;;12.40;99.90;;;;;;5050791;28;20219;-34
2022/04/05 01:12:47;;;;;;;13.90;10.20;;;12.40;99.90;;;;;;5065038;28;20199;-34
2022/04/05 01:15:17;;;;;;;14.13;10.73;;;12.40;99.90;;;;;;5061819;28;20593;-34
2022/04/05 01:17:46;;;;;;;15.83;10.70;;;12.50;99.90;;;;;;5059108;28;20242;-34
2022/04/05 01:20:13;;;;;;;12.43;10.80;;;12.50;99.90;;;;;;5061622;28;20324;-34
2022/04/05 01:22:53;;;;;;;15.33;10.30;;;12.50;99.90;;;;;;5066511;28;20628;-34
2022/04/05 01:25:21;;;;;;;13.43;11.63;;;12.50;99.90;;;;;;5056378;28;20211;-34
2022/04/05 01:27:54;;;;;;;12.03;10.47;;;12.50;99.90;;;;;;5056470;28;20243;-38
2022/04/05 01:30:21;;;;;;;11.33;9.80;;;12.50;99.90;;;;;;5062604;28;20216;-39
2022/04/05 01:32:54;;;;;;;16.30;12.57;;;12.50;99.90;;;;;;5054937;28;20291;-39
2022/04/05 01:35:21;;;;;;;14.20;10.03;;;12.50;99.90;;;;;;5062914;28;20274;-39
2022/04/05 01:37:51;;;;;;;13.00;10.33;;;12.50;99.90;;;;;;5062036;28;20689;-39
2022/04/05 01:40:18;;;;;;;13.73;10.67;;;12.60;99.90;;;;;;5057350;28;20258;-39
2022/04/05 01:42:45;;;;;;;12.77;10.90;;;12.60;99.90;;;;;;5050731;28;20224;-39
2022/04/05 01:45:12;;;;;;;12.47;10.30;;;12.60;99.90;;;;;;5067253;28;20728;-38
2022/04/05 01:47:40;;;;;;;13.00;10.20;;;12.60;99.90;;;;;;5061165;28;20261;-39
2022/04/05 01:50:07;;;;;;;15.60;10.73;;;12.60;99.90;;;;;;5053877;28;20200;-38
2022/04/05 01:52:38;;;;;;;14.00;11.03;;;12.60;99.90;;;;;;5060531;28;20215;-39
2022/04/05 01:55:08;;;;;;;11.70;9.60;;;12.60;99.90;;;;;;5067888;28;20242;-39
2022/04/05 01:57:38;;;;;;;11.83;10.27;;;12.60;99.90;;;;;;5056613;28;20338;-39
2022/04/05 02:00:14;;;;;;;11.97;9.70;;;12.70;99.90;;;;;;5049011;28;20801;-39
2022/04/05 02:02:42;;;;;;;14.07;10.43;;;12.70;99.90;;;;;;5064521;28;20223;-39
2022/04/05 02:05:12;;;;;;;13.90;11.40;;;12.70;99.90;;;;;;5063647;28;20200;-39
2022/04/05 02:07:42;;;;;;;13.00;9.83;;;12.70;99.90;;;;;;5042053;28;20211;-39
2022/04/05 02:10:15;;;;;;;15.30;10.53;;;12.80;99.90;;;;;;5055966;28;20294;-39
2022/04/05 02:12:42;;;;;;;11.63;9.63;;;12.80;99.90;;;;;;5049224;28;20804;-39
2022/04/05 02:15:10;;;;;;;13.37;10.97;;;12.80;99.90;;;;;;5064386;28;20655;-39
2022/04/05 02:17:39;;;;;;;11.67;10.37;;;12.80;99.90;;;;;;5056808;28;20224;-39
2022/04/05 02:20:08;;;;;;;12.13;10.07;;;12.80;99.90;;;;;;5064608;28;20335;-39
2022/04/05 02:22:37;;;;;;;12.37;10.47;;;12.80;99.90;;;;;;5048625;28;20204;-39
2022/04/05 02:25:08;;;;;;;13.23;10.90;;;12.80;99.90;;;;;;5063943;28;20295;-39
2022/04/05 02:27:38;;;;;;;10.87;9.80;;;12.80;99.90;;;;;;5065050;28;20686;-40
2022/04/05 02:30:06;;;;;;;12.13;8.90;;;12.80;99.90;;;;;;5057413;28;20215;-39
2022/04/05 02:32:38;;;;;;;11.50;8.87;;;12.80;99.90;;;;;;5055493;28;20232;-34
2022/04/05 02:35:08;;;;;;;11.93;9.67;;;12.90;99.90;;;;;;5063645;28;20223;-34
2022/04/05 02:37:38;;;;;;;12.57;9.33;;;12.90;99.90;;;;;;5056060;28;20219;-34
2022/04/05 02:40:08;;;;;;;11.80;9.60;;;12.90;99.90;;;;;;5067129;28;20667;-34
2022/04/05 02:42:35;;;;;;;10.60;9.13;;;12.90;99.90;;;;;;5059524;28;20210;-34
2022/04/05 02:45:05;;;;;;;14.83;10.70;;;12.90;99.90;;;;;;5056160;28;20200;-34
2022/04/05 02:47:35;;;;;;;13.50;9.97;;;12.90;99.90;;;;;;5060352;28;20504;-34
2022/04/05 02:50:05;;;;;;;13.80;9.67;;;12.90;99.90;;;;;;5056147;28;20302;-34
2022/04/05 02:52:36;;;;;;;12.80;9.33;;;12.90;99.90;;;;;;5064873;28;20294;-34
2022/04/05 02:55:09;;;;;;;13.40;9.30;;;12.90;99.90;;;;;;5063675;28;20782;-34
2022/04/05 02:57:37;;;;;;;11.30;9.20;;;12.90;99.90;;;;;;5058178;28;20624;-34
2022/04/05 03:00:08;;;;;;;10.90;8.93;;;13.00;99.90;;;;;;5061172;28;20216;-34
2022/04/05 03:02:35;;;;;;;12.87;9.67;;;13.00;99.90;;;;;;5054867;28;20228;-34
2022/04/05 03:05:07;;;;;;;11.43;8.60;;;13.00;99.90;;;;;;5060795;28;20278;-41
2022/04/05 03:07:36;;;;;;;12.77;9.17;;;13.00;99.90;;;;;;5048643;28;20659;-41
2022/04/05 03:10:10;;;;;;;15.13;10.70;;;13.00;99.90;;;;;;5068224;28;20204;-41
2022/04/05 03:12:40;;;;;;;13.37;9.50;;;13.00;99.90;;;;;;5059824;28;20288;-41
2022/04/05 03:15:13;;;;;;;10.63;9.33;;;13.00;99.90;;;;;;5063554;28;20207;-41
2022/04/05 03:17:53;;;;;;;10.40;8.63;;;13.00;99.90;;;;;;5065058;28;20207;-41
2022/04/05 03:20:20;;;;;;;13.17;9.37;;;13.00;99.90;;;;;;5058553;28;20294;-41
2022/04/05 03:22:47;;;;;;;11.07;9.10;;;13.00;99.90;;;;;;5066823;28;20287;-42
2022/04/05 03:25:21;;;;;;;11.20;8.17;;;13.00;99.90;;;;;;5066964;28;20200;-41
2022/04/05 03:27:51;;;;;;;12.50;9.10;;;13.00;99.90;;;;;;5064181;28;20306;-41
2022/04/05 03:30:23;;;;;;;12.40;9.47;;;13.00;99.90;;;;;;5061104;28;20214;-42
2022/04/05 03:32:53;;;;;;;11.47;8.57;;;13.10;99.90;;;;;;5054967;28;20620;-41
2022/04/05 03:35:25;;;;;;;11.63;9.27;;;13.00;99.90;;;;;;5067816;28;20546;-41
2022/04/05 03:37:52;;;;;;;10.37;8.43;;;13.00;99.90;;;;;;5060154;28;20221;-41
2022/04/05 03:40:22;;;;;;;15.27;9.70;;;13.10;99.90;;;;;;5062292;28;20591;-42
2022/04/05 03:42:51;;;;;;;12.67;9.13;;;13.10;99.90;;;;;;5054557;28;20632;-41
2022/04/05 03:45:21;;;;;;;13.17;8.97;;;13.10;99.90;;;;;;5061939;28;20619;-42
2022/04/05 03:47:51;;;;;;;12.60;9.23;;;13.10;99.90;;;;;;5061078;28;20655;-42
2022/04/05 03:50:19;;;;;;;11.40;8.87;;;13.10;99.90;;;;;;5056849;28;20308;-41
2022/04/05 03:52:49;;;;;;;13.23;9.83;;;13.10;99.90;;;;;;5060455;28;20213;-41
2022/04/05 03:55:18;;;;;;;10.60;8.80;;;13.10;99.90;;;;;;5056232;28;20244;-41
2022/04/05 03:57:48;;;;;;;12.83;9.77;;;13.10;99.90;;;;;;5063922;28;20679;-42
2022/04/05 04:00:16;;;;;;;11.83;8.97;;;13.10;99.90;;;;;;5055872;28;20228;-42
2022/04/05 04:02:43;;;;;;;11.53;9.50;;;13.10;99.90;;;;;;5054811;28;20248;-42
2022/04/05 04:05:17;;;;;;;12.37;8.97;;;13.10;99.90;;;;;;5058940;28;20204;-41
2022/04/05 04:07:45;;;;;;;16.77;9.63;;;13.10;99.90;;;;;;5058855;28;20211;-41
2022/04/05 04:10:12;;;;;;;11.97;9.17;;;13.20;99.90;;;;;;5063618;28;20256;-41
2022/04/05 04:12:42;;;;;;;13.83;9.63;;;13.10;99.90;;;;;;5056978;28;20267;-41
2022/04/05 04:15:10;;;;;;;15.40;9.47;;;13.20;99.90;;;;;;5050305;28;20203;-41
2022/04/05 04:17:37;;;;;;;16.33;10.97;;;13.20;99.90;;;;;;5054607;28;20215;-41
2022/04/05 04:20:06;;;;;;;11.80;9.47;;;13.20;99.90;;;;;;5060893;28;20684;-41
2022/04/05 04:22:38;;;;;;;14.57;10.17;;;13.20;99.90;;;;;;5064710;28;20212;-42
2022/04/05 04:25:06;;;;;;;11.23;9.93;;;13.20;99.90;;;;;;5056300;28;20210;-42
2022/04/05 04:27:34;;;;;;;15.83;9.47;;;13.20;99.90;;;;;;5050179;28;20561;-41
2022/04/05 04:30:05;;;;;;;17.93;10.73;;;13.20;99.90;;;;;;5045802;28;20231;-42
2022/04/05 04:32:32;;;;;;;16.47;10.70;;;13.20;99.90;;;;;;5057436;28;20238;-42
2022/04/05 04:35:07;;;;;;;14.30;9.87;;;13.20;99.90;;;;;;5058484;28;20294;-41
2022/04/05 04:37:35;;;;;;;15.47;10.33;;;13.20;99.90;;;;;;5069076;28;20292;-42
2022/04/05 04:40:05;;;;;;;14.20;9.87;;;13.20;99.90;;;;;;5058430;28;20247;-42
2022/04/05 04:42:35;;;;;;;12.40;10.10;;;13.20;99.90;;;;;;5063259;28;20580;-42
2022/04/05 04:45:08;;;;;;;16.07;10.53;;;13.20;99.90;;;;;;5062348;28;20204;-42
2022/04/05 04:47:35;;;;;;;14.37;10.90;;;13.20;99.90;;;;;;5066898;28;20220;-42
2022/04/05 04:50:06;;;;;;;14.70;10.20;;;13.20;99.90;;;;;;5058466;28;20204;-42
2022/04/05 04:52:36;;;;;;;15.17;10.83;;;13.20;99.90;;;;;;5062543;28;20720;-34
2022/04/05 04:55:04;;;;;;;15.40;11.23;;;13.20;99.90;;;;;;5066519;28;20231;-35
2022/04/05 04:57:34;;;;;;;13.03;9.77;;;13.20;99.90;;;;;;5055937;28;20262;-35
2022/04/05 05:00:03;;;;;;;12.13;10.43;;;13.20;99.90;;;;;;5061256;28;20371;-34
2022/04/05 05:02:30;;;;;;;15.57;10.07;;;13.20;99.90;;;;;;5065616;28;20207;-34
2022/04/05 05:04:58;;;;;;;11.43;9.50;;;13.20;99.90;;;;;;5061276;28;20248;-34
2022/04/05 05:07:31;;;;;;;12.27;9.20;;;13.20;99.90;;;;;;5056098;28;20203;-34
2022/04/05 05:09:58;;;;;;;13.57;8.60;;;13.20;99.90;;;;;;5065906;28;20751;-34
2022/04/05 05:12:25;;;;;;;14.80;10.50;;;13.20;99.90;;;;;;5070471;28;20214;-34
2022/04/05 05:14:55;;;;;;;11.53;9.17;;;13.20;99.90;;;;;;5068431;28;20758;-34
2022/04/05 05:17:22;;;;;;;9.83;8.43;;;13.20;99.90;;;;;;5061488;28;21100;-34
2022/04/05 05:19:49;;;;;;;11.30;9.03;;;13.30;99.90;;;;;;5053760;28;20200;-42
2022/04/05 05:22:19;;;;;;;10.63;9.10;;;13.20;99.90;;;;;;5059254;28;20571;-42
2022/04/05 05:24:49;;;;;;;12.07;9.50;;;13.20;99.90;;;;;;5062776;28;20536;-42
2022/04/05 05:27:18;;;;;;;11.03;8.80;;;13.30;99.90;;;;;;5064817;28;20214;-42
2022/04/05 05:29:45;;;;;;;10.37;8.40;;;13.30;99.90;;;;;;5055144;28;20208;-41
2022/04/05 05:32:15;;;;;;;9.33;8.00;;;13.30;99.90;;;;;;5059676;28;20239;-41
2022/04/05 05:34:48;;;;;;;9.30;7.67;;;13.20;99.90;;;;;;5064984;28;20526;-41
2022/04/05 05:37:15;;;;;;;11.40;8.23;;;13.20;99.90;;;;;;5064161;28;20672;-41
2022/04/05 05:39:42;;;;;;;10.37;7.97;;;13.30;99.90;;;;;;5057871;28;20205;-41
2022/04/05 05:42:10;;;;;;;11.03;8.47;;;13.30;99.90;;;;;;5062796;28;20215;-41
2022/04/05 05:44:39;;;;;;;12.23;8.83;;;13.30;99.90;;;;;;5059347;28;20680;-41
2022/04/05 05:47:11;;;;;;;9.80;8.80;;;13.30;99.90;;;;;;5058990;28;20683;-41
2022/04/05 05:49:43;;;;;;;8.90;7.63;;;13.30;99.90;;;;;;5057137;28;20200;-41
2022/04/05 05:52:10;;;;;;;9.53;7.97;;;13.20;99.90;;;;;;5055377;28;20623;-41
2022/04/05 05:54:37;;;;;;;10.27;8.30;;;13.30;99.90;;;;;;5061352;28;20235;-41
2022/04/05 05:57:07;;;;;;;9.90;7.77;;;13.20;99.90;;;;;;5059643;28;20295;-41
2022/04/05 05:59:34;;;;;;;9.67;7.10;;;13.20;99.90;;;;;;5054536;28;20769;-41
2022/04/05 06:02:04;;;;;;;11.30;8.33;;;13.30;99.90;;;;;;5055074;28;20870;-41
2022/04/05 06:04:31;;;;;;;9.73;7.27;;;13.30;99.90;;;;;;5059458;28;20202;-41
2022/04/05 06:07:03;;;;;;;9.57;7.30;;;13.30;99.90;;;;;;5067626;28;20550;-41
2022/04/05 06:09:33;;;;;;;9.60;7.73;;;13.30;99.90;;;;;;5062147;28;20215;-41
2022/04/05 06:12:00;;;;;;;9.53;7.90;;;13.30;99.90;;;;;;5061994;28;20222;-41
2022/04/05 06:14:28;;;;;;;10.77;7.60;;;13.30;99.90;;;;;;5057377;28;20191;-41
2022/04/05 06:16:55;;;;;;;8.80;7.00;;;13.30;99.90;;;;;;5050280;28;20203;-41
2022/04/05 06:19:23;;;;;;;8.00;6.97;;;13.30;99.90;;;;;;5055208;28;20215;-41
2022/04/05 06:21:50;;;;;;;10.27;7.07;;;13.30;99.90;;;;;;5055132;28;20311;-41
2022/04/05 06:24:19;;;;;;;9.53;7.57;;;13.30;99.90;;;;;;5056332;28;20206;-41
2022/04/05 06:26:49;;;;;;;9.40;7.77;;;13.30;99.90;;;;;;5055538;28;20381;-35
2022/04/05 06:29:18;;;;;;;9.87;7.60;;;13.40;99.90;;;;;;5064299;28;20203;-34
2022/04/05 06:31:46;;;;;;;9.50;7.30;;;13.40;99.90;;;;;;5063575;28;20191;-35
2022/04/05 06:34:17;;;;;;;10.47;7.90;;;13.30;99.90;;;;;;5056068;28;20228;-35
2022/04/05 06:36:44;;;;;;;9.57;8.27;;;13.30;99.90;;;;;;5049597;28;20659;-34
2022/04/05 06:39:16;;;;;;;10.37;8.17;;;13.40;99.90;;;;;;5063001;28;20684;-35
2022/04/05 06:41:46;;;;;;;8.27;7.47;;;13.40;99.90;;;;;;5063062;28;20328;-34
2022/04/05 06:44:21;;;;;;;9.33;7.87;;;13.40;99.90;;;;;;5063847;28;20571;-35
2022/04/05 06:46:50;;;;;;;8.23;7.43;;;13.40;99.90;;;;;;5061588;28;20223;-34
2022/04/05 06:49:17;;;;;;;10.90;8.30;;;13.40;99.90;;;;;;5061757;28;20739;-34
2022/04/05 06:51:49;;;;;;;10.43;8.53;;;13.40;99.90;;;;;;5055395;28;20290;-34
2022/04/05 06:54:19;;;;;;;10.03;8.53;;;13.40;99.90;;;;;;5028354;28;1093121;-34
2022/04/05 06:56:46;;;;;;;11.50;8.80;;;13.50;99.90;;;;;;5065336;28;20298;-35
2022/04/05 06:59:13;;;;;;;12.07;9.40;;;13.50;99.90;;;;;;5053977;28;20770;-35
2022/04/05 07:01:43;;;;;;;10.93;8.93;;;13.50;99.90;;;;;;5064870;28;20215;-35
2022/04/05 07:04:11;;;;;;;10.07;8.43;;;13.50;99.90;;;;;;5048202;28;20614;-35
2022/04/05 07:06:40;;;;;;;9.10;8.07;;;13.50;99.90;;;;;;5066087;28;20686;-37
2022/04/05 07:09:09;;;;;;;8.07;7.30;;;13.50;99.90;;;;;;5061586;28;20318;-35
2022/04/05 07:11:37;;;;;;;9.63;8.73;;;13.60;99.90;;;;;;5065141;28;20227;-34
2022/04/05 07:14:09;;;;;;;13.63;8.93;;;13.60;99.90;;;;;;5054202;28;20261;-35
2022/04/05 07:16:36;;;;;;;9.53;8.53;;;13.60;99.90;;;;;;5065632;28;20205;-35
2022/04/05 07:19:03;;;;;;;10.57;8.63;;;13.60;99.90;;;;;;5058455;28;20757;-35
2022/04/05 07:21:31;;;;;;;10.10;9.10;;;13.70;99.90;;;;;;5058220;28;20232;-35
2022/04/05 07:24:04;;;;;;;10.80;8.80;;;13.70;99.90;;;;;;5053713;28;20282;-35
2022/04/05 07:26:31;;;;;;;11.57;8.20;;;13.60;99.90;;;;;;5063828;28;20565;-35
2022/04/05 07:29:01;;;;;;;11.60;7.87;;;13.60;99.90;;;;;;5054408;28;20231;-35
2022/04/05 07:31:33;;;;;;;9.70;7.93;;;13.70;99.90;;;;;;5049730;28;20539;-35
2022/04/05 07:34:05;;;;;;;9.40;7.23;;;13.70;99.90;;;;;;5061364;28;20209;-35
2022/04/05 07:36:34;;;;;;;9.90;8.90;;;13.70;99.90;;;;;;5066963;28;20208;-39
2022/04/05 07:39:02;;;;;;;9.70;8.67;;;13.70;99.90;;;;;;5080876;28;20203;-40
2022/04/05 07:41:31;;;;;;;9.30;8.10;;;13.70;99.90;;;;;;5069088;28;20215;-39
2022/04/05 07:44:03;;;;;;;10.13;9.07;;;13.70;99.90;;;;;;5064772;28;20737;-39
2022/04/05 07:46:35;;;;;;;9.30;8.40;;;13.70;99.90;;;;;;5050333;28;20788;-40
2022/04/05 07:49:05;;;;;;;9.73;8.77;;;13.80;99.90;;;;;;5058320;28;20188;-39
2022/04/05 07:51:32;;;;;;;9.20;8.17;;;13.70;99.90;;;;;;5050975;28;20199;-40
2022/04/05 07:54:04;;;;;;;10.03;9.03;;;13.80;99.90;;;;;;5066717;28;20243;-39
2022/04/05 07:56:34;;;;;;;9.40;8.47;;;13.80;99.90;;;;;;5067793;28;20200;-40
2022/04/05 07:59:05;;;;;;;9.17;8.07;;;13.80;99.90;;;;;;5064472;28;20306;-39
2022/04/05 08:01:32;;;;;;;9.77;8.10;;;13.80;99.90;;;;;;5054508;28;20721;-40
2022/04/05 08:04:02;;;;;;;7.77;7.07;;;13.80;99.90;;;;;;5055860;28;20215;-39
2022/04/05 08:06:34;;;;;;;10.90;7.90;;;13.90;99.90;;;;;;5068498;28;20695;-39
2022/04/05 08:09:04;;;;;;;8.40;7.63;;;13.80;99.90;;;;;;5060627;28;20201;-39
2022/04/05 08:11:34;;;;;;;9.50;8.60;;;13.80;99.90;;;;;;5066873;28;20292;-39
2022/04/05 08:14:01;;;;;;;8.37;7.23;;;13.90;99.90;;;;;;5062298;28;20203;-39
2022/04/05 08:16:31;;;;;;;8.60;7.13;;;13.90;99.90;;;;;;5067080;28;20222;-39
2022/04/05 08:18:58;;;;;;;9.47;7.90;;;13.90;99.90;;;;;;5079414;28;20226;-39
2022/04/05 08:21:25;;;;;;;9.17;7.97;;;14.00;99.90;;;;;;5060275;28;20219;-39
2022/04/05 08:23:53;;;;;;;8.40;7.50;;;14.00;99.90;;;;;;5051814;28;20534;-39
2022/04/05 08:26:22;;;;;;;7.87;7.00;;;14.00;99.90;;;;;;5065567;28;20216;-39
2022/04/05 08:28:59;;;;;;;10.00;7.83;;;14.00;99.90;;;;;;5065333;28;20294;-39
2022/04/05 08:31:27;;;;;;;8.60;7.70;;;14.00;99.90;;;;;;5061306;28;20649;-39
2022/04/05 08:33:58;;;;;;;8.43;7.17;;;14.00;99.90;;;;;;5055673;28;20261;-39
2022/04/05 08:36:25;;;;;;;9.03;7.17;;;14.00;99.90;;;;;;5047588;28;20687;-39
2022/04/05 08:38:52;;;;;;;8.13;7.33;;;14.00;99.90;;;;;;5072896;28;20293;-39
2022/04/05 08:41:21;;;;;;;8.53;7.67;;;14.10;99.90;;;;;;5065341;28;20251;-39
2022/04/05 08:43:55;;;;;;;15.93;8.57;;;14.10;99.90;;;;;;5051478;28;20223;-39
2022/04/05 08:46:23;;;;;;;7.23;6.53;;;14.10;99.90;;;;;;5066837;28;20642;-39
2022/04/05 08:48:54;;;;;;;8.63;7.30;;;14.10;99.90;;;;;;5066565;28;20290;-39
2022/04/05 08:51:28;;;;;;;8.10;7.40;;;14.10;99.90;;;;;;5062056;28;20625;-39
2022/04/05 08:54:00;;;;;;;8.97;8.07;;;14.20;99.90;;;;;;5051820;28;20247;-39
2022/04/05 08:56:30;;;;;;;9.33;7.40;;;14.10;99.90;;;;;;5051477;28;20297;-39
2022/04/05 08:59:02;;;;;;;7.33;6.63;;;14.20;99.90;;;;;;5046876;28;20379;-39
2022/04/05 09:01:30;;;;;;;10.57;7.53;;;14.20;99.90;;;;;;5072645;28;20231;-39
2022/04/05 09:03:58;;;;;;;7.80;7.00;;;14.20;99.90;;;;;;5061819;28;20690;-39
2022/04/05 09:06:32;;;;;;;8.57;7.77;;;14.20;99.90;;;;;;5056058;28;20230;-39
2022/04/05 09:09:10;;;;;;;7.60;6.23;;;14.20;99.90;;;;;;5066881;28;20282;-39
2022/04/05 09:11:43;;;;;;;8.37;5.90;;;14.30;99.90;;;;;;5066717;28;20203;-40
2022/04/05 09:14:28;;;;;;;7.17;6.10;;;14.30;99.90;;;;;;5060465;28;20239;-39
2022/04/05 09:17:10;;;;;;;6.80;6.07;;;14.30;99.90;;;;;;5046902;28;20210;-41
2022/04/05 09:19:38;;;;;;;7.30;6.53;;;14.30;99.90;;;;;;5062163;28;20246;-39
2022/04/05 09:22:07;;;;;;;6.53;5.80;;;14.30;99.90;;;;;;5056658;28;20234;-35
2022/04/05 09:24:38;;;;;;;5.67;5.17;;;14.30;99.90;;;;;;5058970;28;20204;-35
2022/04/05 09:27:06;;;;;;;7.43;5.80;;;14.30;99.90;;;;;;5064106;28;20590;-35
2022/04/05 09:30:03;;;;;;;7.07;5.90;;;14.30;99.90;;;;;;5048438;28;20213;-35
2022/04/05 09:32:36;;;;;;;6.90;6.20;;;14.30;99.90;;;;;;5060138;28;20595;-35
2022/04/05 09:35:06;;;;;;;8.50;6.83;;;14.20;99.90;;;;;;5052728;28;20269;-35
2022/04/05 09:37:39;;;;;;;6.83;6.13;;;14.20;99.90;;;;;;5066612;28;20265;-35
2022/04/05 09:40:32;;;;;;;6.73;5.83;;;14.20;99.90;;;;;;5071593;28;20223;-35
2022/04/05 09:43:21;;;;;;;6.30;5.70;;;14.30;99.90;;;;;;5057659;28;20218;-35
2022/04/05 09:45:58;;;;;;;6.47;5.87;;;14.30;99.90;;;;;;5051100;28;20200;-35
2022/04/05 09:48:30;;;;;;;6.90;5.80;;;14.40;99.90;;;;;;5058349;28;20585;-34
2022/04/05 09:51:04;;;;;;;7.03;6.33;;;14.50;99.90;;;;;;5063314;28;20224;-39
2022/04/05 09:53:51;;;;;;;7.10;6.27;;;14.40;99.90;;;;;;5054796;28;20258;-39
2022/04/05 09:56:22;;;;;;;6.90;5.97;;;14.40;99.90;;;;;;5062242;28;20204;-39
2022/04/05 09:58:54;;;;;;;5.90;5.40;;;14.40;99.90;;;;;;5063879;28;20211;-39
2022/04/05 10:01:24;;;;;;;8.23;7.30;;;14.50;99.90;;;;;;5063011;28;20219;-39
2022/04/05 10:04:12;;;;;;;6.83;5.90;;;14.40;99.90;;;;;;5062089;28;20255;-39
2022/04/05 10:06:44;;;;;;;6.10;5.60;;;14.50;99.90;;;;;;5057019;28;20207;-39
2022/04/05 10:09:13;;;;;;;5.67;5.17;;;14.50;99.90;;;;;;5063029;28;20195;-39
2022/04/05 10:11:44;;;;;;;7.03;5.23;;;14.50;99.90;;;;;;5076459;28;20202;-39
2022/04/05 10:14:20;;;;;;;7.97;6.10;;;14.60;99.90;;;;;;5066080;28;20662;-39
2022/04/05 10:16:52;;;;;;;7.53;5.80;;;14.60;99.90;;;;;;5059186;28;20692;-39
2022/04/05 10:19:22;;;;;;;7.30;5.77;;;14.70;99.90;;;;;;5068918;28;20204;-39
2022/04/05 10:21:59;;;;;;;6.00;5.50;;;14.70;99.90;;;;;;5061711;28;20227;-39
2022/04/05 10:24:32;;;;;;;6.53;5.90;;;14.80;99.90;;;;;;5066916;28;20210;-37
2022/04/05 10:27:05;;;;;;;5.63;5.13;;;14.90;99.90;;;;;;5062913;28;20206;-38
2022/04/05 10:29:35;;;;;;;8.57;5.50;;;14.90;99.90;;;;;;5048982;28;20212;-38
2022/04/05 10:32:27;;;;;;;6.03;5.43;;;14.90;99.90;;;;;;5031331;28;20204;-38
2022/04/05 10:35:08;;;;;;;5.73;4.90;;;15.00;99.90;;;;;;5057892;28;20663;-38
2022/04/05 10:37:41;;;;;;;5.80;5.20;;;15.00;99.90;;;;;;5068384;28;20636;-38
2022/04/05 10:40:10;;;;;;;6.63;6.03;;;15.10;99.90;;;;;;5068276;28;20310;-38
2022/04/05 10:42:42;;;;;;;6.57;5.77;;;15.10;99.90;;;;;;5068428;28;20241;-38
2022/04/05 10:45:17;;;;;;;8.63;5.90;;;15.00;99.90;;;;;;5061924;28;20193;-38
2022/04/05 10:47:59;;;;;;;7.60;6.27;;;15.10;99.90;;;;;;5054930;28;20204;-38
2022/04/05 10:51:01;;;;;;;5.93;5.43;;;15.10;99.90;;;;;;5058098;28;20215;-38
2022/04/05 10:53:36;;;;;;;6.13;5.53;;;15.00;99.90;;;;;;5060987;28;20298;-39
2022/04/05 10:56:03;;;;;;;6.97;6.17;;;15.00;99.90;;;;;;5060231;28;20217;-38
2022/04/05 10:58:35;;;;;;;5.83;5.27;;;15.00;99.90;;;;;;5065926;28;20243;-38
2022/04/05 11:01:22;;;;;;;6.43;5.37;;;15.00;99.90;;;;;;5066369;28;21066;-39
2022/04/05 11:04:16;;;;;;;12.43;7.03;;;15.00;99.90;;;;;;5064528;28;20679;-39
2022/04/05 11:06:59;;;;;;;10.20;5.70;;;15.10;99.90;;;;;;5051577;28;20307;-39
2022/04/05 11:09:46;;;;;;;6.33;5.47;;;15.10;99.90;;;;;;5062571;28;20200;-39
2022/04/05 11:12:23;;;;;;;7.80;6.60;;;15.10;99.90;;;;;;5065508;28;20219;-39
2022/04/05 11:14:58;;;;;;;6.63;6.00;;;15.10;99.90;;;;;;5065243;28;21916;-39
2022/04/05 11:17:33;;;;;;;6.47;5.13;;;15.10;99.90;;;;;;5060283;28;20264;-39
2022/04/05 11:20:01;;;;;;;5.07;4.60;;;15.10;99.90;;;;;;5077713;28;20207;-40
2022/04/05 11:22:35;;;;;;;7.33;6.07;;;15.20;99.90;;;;;;5066247;28;20212;-39
2022/04/05 11:25:06;;;;;;;11.80;5.97;;;15.20;99.90;;;;;;5056837;28;20761;-40
2022/04/05 11:27:46;;;;;;;6.05;5.45;;;15.20;99.90;;;;;;5060009;28;20203;-40
2022/04/05 11:30:40;;;;;;;6.03;5.13;;;15.30;99.90;;;;;;5053565;28;20624;-40
2022/04/05 11:33:26;;;;;;;5.47;5.07;;;15.20;99.90;;;;;;5061753;28;20203;-40
2022/04/05 11:35:59;;;;;;;5.20;4.77;;;15.30;99.90;;;;;;5066151;28;20207;-39
2022/04/05 11:38:33;;;;;;;6.27;5.53;;;15.30;99.90;;;;;;5079938;28;20208;-40
2022/04/05 11:41:13;;;;;;;6.60;5.88;;;15.30;99.90;;;;;;5045301;28;20203;-40
2022/04/05 11:43:43;;;;;;;5.45;5.00;;;15.30;99.90;;;;;;5057683;28;21003;-40
2022/04/05 11:46:14;;;;;;;5.67;5.13;;;15.30;99.90;;;;;;5063484;28;20334;-39
2022/04/05 11:48:54;;;;;;;6.33;5.73;;;15.30;99.90;;;;;;5068412;28;20203;-40
2022/04/05 11:51:30;;;;;;;5.28;4.78;;;15.30;99.90;;;;;;5062102;28;20207;-40
2022/04/05 11:54:07;;;;;;;5.67;5.07;;;15.40;99.90;;;;;;5062748;28;20281;-39
2022/04/05 11:56:41;;;;;;;11.57;6.05;;;15.50;99.90;;;;;;5052721;28;20211;-40
2022/04/05 11:59:14;;;;;;;9.70;5.82;;;15.50;99.90;;;;;;5055220;28;20212;-40
2022/04/05 12:01:45;;;;;;;9.30;5.53;;;15.50;99.90;;;;;;5061841;28;20204;-40
2022/04/05 12:04:16;;;;;;;5.40;4.93;;;15.50;99.90;;;;;;5053304;28;20756;-39
2022/04/05 12:06:48;;;;;;;6.50;5.10;;;15.60;99.90;;;;;;5052099;28;20254;-40
2022/04/05 12:09:19;;;;;;;6.20;5.60;;;15.60;99.90;;;;;;5060944;28;20886;-39
2022/04/05 12:11:48;;;;;;;5.70;5.00;;;15.60;99.90;;;;;;5062369;28;20230;-39
2022/04/05 12:14:20;;;;;;;5.40;4.90;;;15.60;99.90;;;;;;5060124;28;20241;-40
2022/04/05 12:17:01;;;;;;;4.67;4.27;;;15.60;99.90;;;;;;5047471;28;20208;-40
2022/04/05 12:19:41;;;;;;;4.97;4.40;;;15.60;99.90;;;;;;5055228;28;20795;-39
2022/04/05 12:22:16;;;;;;;4.87;4.40;;;15.70;99.90;;;;;;5058516;28;20215;-39
2022/04/05 12:24:53;;;;;;;4.30;3.90;;;15.70;99.90;;;;;;5060772;28;20235;-39
2022/04/05 12:27:25;;;;;;;4.80;4.32;;;15.70;99.90;;;;;;5049979;28;20849;-39
2022/04/05 12:29:57;;;;;;;5.60;4.57;;;15.70;99.90;;;;;;5059585;28;20200;-39
2022/04/05 12:32:40;;;;;;;5.28;4.10;;;15.80;99.90;;;;;;5046997;28;20304;-39
2022/04/05 12:35:08;;;;;;;3.92;3.63;;;15.70;99.90;;;;;;5062960;28;20217;-39
2022/04/05 12:37:40;;;;;;;4.82;4.10;;;15.70;99.90;;;;;;5050413;28;20203;-39
2022/04/05 12:40:27;;;;;;;4.20;3.90;;;15.70;99.90;;;;;;5062940;28;20203;-39
2022/04/05 12:42:54;;;;;;;4.37;3.73;;;15.80;99.90;;;;;;5058673;28;20224;-38
2022/04/05 12:45:29;;;;;;;4.43;4.03;;;15.80;99.90;;;;;;5064782;28;20226;-38
2022/04/05 12:48:11;;;;;;;3.72;3.42;;;15.80;99.90;;;;;;5048292;28;20216;-38
2022/04/05 12:50:46;;;;;;;4.20;3.90;;;15.90;99.90;;;;;;5053998;28;20211;-38
2022/04/05 12:53:33;;;;;;;3.90;3.60;;;15.90;99.90;;;;;;5067083;28;20242;-38
2022/04/05 12:56:14;;;;;;;5.17;4.40;;;15.90;99.90;;;;;;5055044;28;20208;-38
2022/04/05 12:58:46;;;;;;;4.40;4.00;;;15.90;99.90;;;;;;5066147;28;20221;-38
2022/04/05 13:01:23;;;;;;;4.63;4.18;;;15.90;99.90;;;;;;5065327;28;20212;-38